Time;durP1;ratioP1;P1;durP2;ratioP2;P2;SDS_P1;SDS_P2;PMS_P1;PMS_P2;Temp;Humidity;BMP_temperature;BMP_pressure;BME280_temperature;BME280_humidity;BME280_pressure;Samples;Min_cycle;Max_cycle;Signal;HPM_P1;HPM_P2
2022/04/19 00:00:59;;;;;;;4.88;3.13;;;11.40;48.50;;;;;;5082280;28;20032;-46
2022/04/19 00:03:26;;;;;;;3.92;3.00;;;11.40;48.00;;;;;;5089790;28;20492;-45
2022/04/19 00:05:58;;;;;;;3.47;3.00;;;11.40;48.10;;;;;;5082526;28;20093;-46
2022/04/19 00:08:27;;;;;;;4.03;3.13;;;11.30;48.10;;;;;;5079207;28;20056;-45
2022/04/19 00:11:01;;;;;;;2.72;2.50;;;11.30;48.20;;;;;;5069835;28;20119;-46
2022/04/19 00:13:28;;;;;;;4.83;3.10;;;11.30;48.30;;;;;;5079017;28;20048;-47
2022/04/19 00:15:58;;;;;;;2.88;2.63;;;11.20;48.20;;;;;;5081570;28;20503;-44
2022/04/19 00:18:29;;;;;;;3.65;2.72;;;11.20;48.40;;;;;;5070921;28;20041;-46
2022/04/19 00:20:56;;;;;;;3.05;2.65;;;11.10;48.50;;;;;;5052987;28;20491;-45
2022/04/19 00:23:23;;;;;;;3.28;2.97;;;11.10;48.60;;;;;;5077908;28;20049;-49
2022/04/19 00:25:52;;;;;;;3.28;2.90;;;11.00;48.70;;;;;;5089931;28;20449;-44
2022/04/19 00:28:22;;;;;;;3.88;2.88;;;11.00;48.70;;;;;;5081920;28;20067;-47
2022/04/19 00:30:55;;;;;;;3.22;2.70;;;11.00;49.00;;;;;;5090624;28;20036;-45
2022/04/19 00:33:22;;;;;;;2.90;2.60;;;11.00;48.70;;;;;;5070865;28;20048;-47
2022/04/19 00:35:50;;;;;;;2.70;2.50;;;10.90;48.80;;;;;;5064646;28;20130;-44
2022/04/19 00:38:21;;;;;;;3.88;2.40;;;10.90;48.90;;;;;;5077565;28;20040;-44
2022/04/19 00:40:50;;;;;;;4.40;2.53;;;10.90;49.00;;;;;;5070025;28;20045;-50
2022/04/19 00:43:18;;;;;;;3.30;2.85;;;10.80;49.00;;;;;;5083067;28;20411;-45
2022/04/19 00:45:50;;;;;;;2.65;2.10;;;10.80;49.00;;;;;;5080902;28;20440;-44
2022/04/19 00:48:21;;;;;;;2.95;2.33;;;10.70;49.00;;;;;;5071833;28;20521;-46
2022/04/19 00:50:50;;;;;;;2.58;2.28;;;10.70;49.00;;;;;;5054813;28;20097;-45
2022/04/19 00:53:25;;;;;;;2.92;2.45;;;10.70;49.00;;;;;;5088181;28;20037;-47
2022/04/19 00:55:58;;;;;;;2.25;2.03;;;10.60;49.20;;;;;;5065856;28;20044;-44
2022/04/19 00:58:27;;;;;;;2.65;2.42;;;10.60;49.00;;;;;;5064418;28;20048;-46
2022/04/19 01:01:03;;;;;;;4.10;2.60;;;10.60;49.20;;;;;;5080491;28;20074;-45
2022/04/19 01:03:29;;;;;;;3.58;2.45;;;10.50;49.20;;;;;;5068256;28;20051;-44
2022/04/19 01:06:11;;;;;;;3.22;2.42;;;10.50;49.20;;;;;;5054692;28;20051;-45
2022/04/19 01:08:38;;;;;;;2.80;2.60;;;10.40;49.20;;;;;;5052580;28;20111;-50
2022/04/19 01:14:03;;;;;;;2.40;2.03;;;10.40;49.40;;;;;;5055870;28;20455;-45
2022/04/19 01:16:38;;;;;;;2.70;2.40;;;10.30;49.30;;;;;;5081721;28;20037;-45
2022/04/19 01:19:12;;;;;;;2.43;2.23;;;10.30;49.30;;;;;;5068346;28;20389;-45
2022/04/19 01:21:48;;;;;;;2.22;2.03;;;10.30;49.50;;;;;;5071533;28;20630;-47
2022/04/19 01:24:22;;;;;;;2.83;2.38;;;10.30;49.90;;;;;;5066897;28;20048;-48
2022/04/19 01:26:54;;;;;;;2.53;2.33;;;10.20;49.50;;;;;;5073219;28;20047;-44
2022/04/19 01:29:23;;;;;;;3.17;2.58;;;10.20;50.60;;;;;;5073647;28;20048;-46
2022/04/19 01:31:51;;;;;;;2.67;2.47;;;10.10;49.50;;;;;;5085725;28;20048;-45
2022/04/19 01:34:21;;;;;;;3.65;3.10;;;10.10;49.80;;;;;;5073696;28;20044;-45
2022/04/19 01:36:54;;;;;;;3.75;2.50;;;10.10;49.70;;;;;;5088857;28;20050;-47
2022/04/19 01:42:09;;;;;;;3.15;2.75;;;10.00;49.60;;;;;;5066164;28;20059;-45
2022/04/19 01:44:44;;;;;;;3.13;2.80;;;10.00;49.60;;;;;;5074190;28;20059;-45
2022/04/19 01:47:11;;;;;;;3.58;3.28;;;9.90;49.60;;;;;;5092948;28;20047;-47
2022/04/19 01:49:43;;;;;;;;;;;9.90;49.70;;;;;;5071477;28;20470;-44
2022/04/19 01:52:11;;;;;;;3.22;2.58;;;9.90;49.80;;;;;;5066331;28;20290;-44
2022/04/19 01:54:39;;;;;;;4.13;3.10;;;9.90;49.20;;;;;;5073908;28;20039;-46
2022/04/19 01:57:19;;;;;;;4.70;2.72;;;9.80;49.50;;;;;;5071052;28;20403;-45
2022/04/19 01:59:51;;;;;;;3.08;2.83;;;9.80;50.00;;;;;;5062154;28;20071;-46
2022/04/19 02:02:28;;;;;;;3.88;3.00;;;9.70;49.70;;;;;;5054318;28;20531;-45
2022/04/19 02:04:55;;;;;;;3.72;3.30;;;9.70;50.00;;;;;;5071588;28;20566;-47
2022/04/19 02:07:25;;;;;;;4.75;3.40;;;9.70;50.00;;;;;;5073721;28;20067;-46
2022/04/19 02:09:52;;;;;;;3.08;2.78;;;9.60;50.10;;;;;;5060879;28;20052;-44
2022/04/19 02:12:24;;;;;;;4.00;3.42;;;9.60;50.20;;;;;;5062499;28;20048;-45
2022/04/19 02:14:56;;;;;;;4.18;3.05;;;9.60;50.40;;;;;;5068446;28;20064;-46
2022/04/19 02:17:25;;;;;;;5.15;3.28;;;9.60;50.40;;;;;;5074113;28;20044;-48
2022/04/19 02:20:02;;;;;;;3.90;3.35;;;9.60;50.50;;;;;;5066303;28;20065;-45
2022/04/19 02:22:29;;;;;;;3.83;3.20;;;9.50;51.30;;;;;;5074243;28;20066;-44
2022/04/19 02:25:01;;;;;;;4.07;3.28;;;9.50;50.60;;;;;;5089756;28;20114;-45
2022/04/19 02:27:33;;;;;;;3.67;3.30;;;9.50;50.60;;;;;;5092180;28;20476;-49
2022/04/19 02:30:04;;;;;;;6.32;3.83;;;9.40;50.80;;;;;;5066473;28;20048;-44
2022/04/19 02:32:36;;;;;;;4.07;3.25;;;9.40;51.30;;;;;;5058874;28;20055;-44
2022/04/19 02:35:03;;;;;;;5.57;3.85;;;9.40;50.70;;;;;;5071493;28;20086;-47
2022/04/19 02:37:32;;;;;;;4.20;3.45;;;9.40;50.80;;;;;;5063299;28;20165;-45
2022/04/19 02:39:59;;;;;;;4.55;3.50;;;9.30;50.80;;;;;;5059894;28;20040;-46
2022/04/19 02:42:26;;;;;;;4.90;3.53;;;9.30;50.80;;;;;;5073550;22;20053;-49
2022/04/19 02:44:53;;;;;;;5.13;4.20;;;9.30;50.90;;;;;;5030875;28;20071;-48
2022/04/19 02:47:24;;;;;;;5.32;3.90;;;9.20;51.00;;;;;;5025111;28;20061;-48
2022/04/19 02:49:51;;;;;;;3.88;3.45;;;9.30;51.00;;;;;;5034874;28;20080;-50
2022/04/19 02:52:18;;;;;;;5.13;4.18;;;9.20;51.00;;;;;;5022554;28;20103;-46
2022/04/19 02:54:45;;;;;;;4.50;4.03;;;9.20;51.20;;;;;;5032183;28;20041;-47
2022/04/19 02:57:15;;;;;;;5.40;3.92;;;9.20;51.30;;;;;;5023520;28;20045;-50
2022/04/19 02:59:45;;;;;;;6.35;4.88;;;9.20;51.30;;;;;;5034211;28;20060;-46
2022/04/19 03:02:14;;;;;;;4.65;4.15;;;9.20;51.40;;;;;;5026004;28;20132;-47
2022/04/19 03:04:42;;;;;;;5.35;4.40;;;9.20;51.30;;;;;;5024667;28;20446;-47
2022/04/19 03:07:09;;;;;;;6.28;4.18;;;9.10;51.20;;;;;;5050761;28;20049;-51
2022/04/19 03:09:36;;;;;;;6.93;4.78;;;9.10;51.30;;;;;;5030206;28;20136;-48
2022/04/19 03:12:03;;;;;;;5.82;3.80;;;9.10;51.30;;;;;;5024788;28;20048;-46
2022/04/19 03:14:30;;;;;;;5.55;4.05;;;9.10;51.30;;;;;;5031267;28;20440;-48
2022/04/19 03:16:57;;;;;;;5.55;4.40;;;9.00;51.20;;;;;;5050785;28;20037;-47
2022/04/19 03:19:24;;;;;;;5.43;4.18;;;9.00;51.30;;;;;;5034132;28;20045;-46
2022/04/19 03:21:54;;;;;;;6.15;4.95;;;9.00;51.40;;;;;;5026743;28;20520;-50
2022/04/19 03:29:52;;;;;;;5.32;4.55;;;9.00;51.40;;;;;;5047662;28;20138;-50
2022/04/19 03:32:23;;;;;;;6.60;4.68;;;8.90;51.20;;;;;;5039368;28;20041;-50
2022/04/19 03:34:51;;;;;;;5.93;5.00;;;8.90;51.40;;;;;;5040679;28;20102;-50
2022/04/19 03:37:19;;;;;;;6.93;5.15;;;8.90;51.30;;;;;;5033377;28;20052;-49
2022/04/19 03:39:49;;;;;;;7.47;4.80;;;8.80;51.30;;;;;;5032964;28;20082;-49
2022/04/19 03:42:16;;;;;;;6.03;4.63;;;8.80;51.40;;;;;;5021660;28;20045;-46
2022/04/19 03:44:43;;;;;;;6.30;5.05;;;8.80;51.50;;;;;;5039417;28;20490;-49
2022/04/19 03:47:09;;;;;;;5.30;4.43;;;8.80;51.50;;;;;;5050478;28;20433;-50
2022/04/19 03:49:39;;;;;;;6.15;4.40;;;8.70;51.50;;;;;;5024122;28;20415;-47
2022/04/19 03:52:08;;;;;;;6.32;4.63;;;8.70;51.70;;;;;;5025643;28;20050;-49
2022/04/19 03:54:36;;;;;;;6.35;4.13;;;8.70;51.60;;;;;;5027851;28;20046;-54
2022/04/19 03:57:07;;;;;;;5.75;4.93;;;8.60;51.60;;;;;;5027349;28;20132;-50
2022/04/19 03:59:38;;;;;;;5.55;4.90;;;8.60;52.40;;;;;;5025069;28;20511;-50
2022/04/19 04:02:06;;;;;;;6.35;4.53;;;8.60;51.80;;;;;;5020779;28;20492;-46
2022/04/19 04:04:35;;;;;;;4.75;3.90;;;8.60;51.80;;;;;;5025886;28;22403;-50
2022/04/19 04:07:07;;;;;;;5.57;4.22;;;8.60;51.90;;;;;;5030579;28;20042;-50
2022/04/19 04:09:36;;;;;;;6.65;4.35;;;8.50;51.90;;;;;;5016176;28;20123;-50
2022/04/19 04:12:03;;;;;;;5.97;4.68;;;8.50;51.90;;;;;;5028288;28;20088;-46
2022/04/19 04:14:30;;;;;;;6.40;4.50;;;8.50;51.90;;;;;;5010563;28;20828;-49
2022/04/19 04:16:57;;;;;;;5.57;4.50;;;8.40;51.90;;;;;;5012982;28;20448;-49
2022/04/19 04:19:24;;;;;;;5.93;4.05;;;8.40;52.00;;;;;;5024368;28;20523;-49
2022/04/19 04:21:51;;;;;;;5.55;4.22;;;8.40;52.10;;;;;;5027876;28;20045;-47
2022/04/19 04:24:21;;;;;;;8.55;4.63;;;8.40;52.10;;;;;;5047428;28;20051;-51
2022/04/19 04:26:48;;;;;;;5.93;4.00;;;8.30;52.00;;;;;;5023071;28;20068;-50
2022/04/19 04:29:18;;;;;;;6.93;4.03;;;8.30;52.00;;;;;;5045119;28;20040;-48
2022/04/19 04:31:47;;;;;;;5.47;4.13;;;8.30;52.10;;;;;;5044793;28;20041;-47
2022/04/19 04:34:16;;;;;;;6.53;4.32;;;8.30;52.10;;;;;;5032240;28;20056;-52
2022/04/19 04:36:45;;;;;;;6.03;4.50;;;8.20;52.20;;;;;;5026814;28;20045;-50
2022/04/19 04:39:20;;;;;;;5.57;4.28;;;8.20;52.30;;;;;;5005783;28;20128;-50
2022/04/19 04:42:18;;;;;;;5.65;4.32;;;8.20;52.30;;;;;;5025891;28;20520;-51
2022/04/19 04:44:45;;;;;;;4.88;4.18;;;8.20;52.30;;;;;;5027578;28;20078;-49
2022/04/19 04:50:01;;;;;;;7.80;4.05;;;8.20;52.90;;;;;;5034640;28;20547;-46
2022/04/19 04:52:30;;;;;;;6.05;4.95;;;8.20;52.50;;;;;;4992871;28;20050;-51
2022/04/19 04:54:57;;;;;;;5.50;4.07;;;8.10;52.70;;;;;;5001573;28;20503;-47
2022/04/19 04:57:31;;;;;;;5.03;4.22;;;8.10;52.80;;;;;;5016721;28;20072;-49
2022/04/19 04:59:58;;;;;;;5.72;4.35;;;8.10;53.00;;;;;;5025355;28;20038;-49
2022/04/19 05:02:28;;;;;;;6.78;4.53;;;8.10;53.10;;;;;;5031374;28;20512;-46
2022/04/19 05:04:55;;;;;;;5.05;4.55;;;8.10;53.20;;;;;;5022680;28;20462;-50
2022/04/19 05:07:22;;;;;;;5.55;4.22;;;8.10;53.30;;;;;;5024208;28;20083;-49
2022/04/19 05:09:58;;;;;;;5.63;4.60;;;8.20;53.40;;;;;;5040284;28;20052;-48
2022/04/19 05:12:26;;;;;;;5.85;4.82;;;8.20;53.50;;;;;;5023184;28;20045;-50
2022/04/19 05:14:52;;;;;;;6.68;4.78;;;8.20;53.60;;;;;;5019114;28;20052;-49
2022/04/19 05:17:19;;;;;;;6.75;4.75;;;8.20;53.70;;;;;;5022655;28;20069;-50
2022/04/19 05:19:46;;;;;;;6.47;5.40;;;8.20;53.80;;;;;;5032583;28;20090;-48
2022/04/19 05:22:13;;;;;;;7.45;5.10;;;8.20;53.80;;;;;;5023834;28;20463;-50
2022/04/19 05:24:39;;;;;;;7.32;5.30;;;8.20;53.90;;;;;;5017740;28;20051;-46
2022/04/19 05:27:06;;;;;;;6.20;4.90;;;8.30;54.10;;;;;;5038400;28;20099;-49
2022/04/19 05:29:35;;;;;;;9.35;5.47;;;8.30;54.10;;;;;;5008348;28;20060;-47
2022/04/19 05:32:02;;;;;;;7.93;5.38;;;8.30;54.20;;;;;;5015025;28;20048;-46
2022/04/19 05:34:31;;;;;;;5.50;4.15;;;8.40;54.40;;;;;;5022244;28;20748;-48
2022/04/19 05:37:00;;;;;;;5.20;4.43;;;8.40;54.40;;;;;;5028380;28;20080;-46
2022/04/19 05:39:27;;;;;;;6.10;5.25;;;8.40;54.50;;;;;;5008074;28;20045;-47
2022/04/19 05:41:54;;;;;;;6.65;5.13;;;8.50;54.70;;;;;;5031494;28;20129;-51
2022/04/19 05:44:21;;;;;;;7.72;5.57;;;8.50;54.90;;;;;;5017469;28;20049;-48
2022/04/19 05:46:50;;;;;;;6.25;5.13;;;8.60;55.00;;;;;;5013212;28;20095;-52
2022/04/19 05:49:17;;;;;;;6.47;5.38;;;8.60;55.10;;;;;;5027696;28;20405;-51
2022/04/19 05:51:48;;;;;;;6.72;5.43;;;8.60;55.10;;;;;;5034844;28;20484;-49
2022/04/19 05:54:15;;;;;;;8.40;6.10;;;8.70;55.20;;;;;;5037566;28;20045;-52
2022/04/19 05:56:43;;;;;;;8.63;6.07;;;8.70;55.30;;;;;;5022507;28;20058;-50
2022/04/19 05:59:10;;;;;;;7.45;5.95;;;8.80;55.40;;;;;;5010318;28;20038;-51
2022/04/19 06:07:08;;;;;;;10.05;7.05;;;9.00;55.60;;;;;;5017077;28;20060;-50
2022/04/19 06:09:35;;;;;;;11.25;7.57;;;9.10;55.80;;;;;;5012781;28;20155;-50
2022/04/19 06:12:04;;;;;;;8.20;6.90;;;9.10;56.00;;;;;;5025046;28;20042;-50
2022/04/19 06:14:36;;;;;;;;;;;9.20;56.10;;;;;;5013311;28;20073;-53
2022/04/19 06:17:03;;;;;;;10.23;7.07;;;9.30;56.60;;;;;;5015159;28;20277;-49
2022/04/19 06:19:30;;;;;;;11.82;7.88;;;9.40;55.50;;;;;;5042433;28;20045;-52
2022/04/19 06:21:58;;;;;;;10.43;7.78;;;9.40;55.90;;;;;;5021099;28;20045;-50
2022/04/19 06:24:25;;;;;;;11.25;7.70;;;9.50;56.30;;;;;;5037365;28;20064;-55
2022/04/19 06:26:55;;;;;;;12.77;8.32;;;9.60;56.50;;;;;;5044825;28;20436;-52
2022/04/19 06:29:21;;;;;;;10.35;8.85;;;9.60;56.70;;;;;;5012252;28;20042;-49
2022/04/19 06:31:53;;;;;;;12.17;8.10;;;9.70;56.70;;;;;;5028856;28;20094;-49
2022/04/19 06:34:26;;;;;;;10.07;7.53;;;9.80;56.70;;;;;;5048524;28;20059;-52
2022/04/19 06:37:04;;;;;;;13.00;8.77;;;9.90;56.50;;;;;;5023814;28;20039;-49
2022/04/19 06:39:32;;;;;;;11.43;9.13;;;10.00;56.30;;;;;;5021000;28;20136;-49
2022/04/19 06:41:59;;;;;;;12.88;8.68;;;10.10;56.20;;;;;;5022914;28;20038;-51
2022/04/19 06:44:34;;;;;;;11.85;8.52;;;10.30;56.30;;;;;;5013914;28;20517;-50
2022/04/19 06:47:08;;;;;;;11.40;8.20;;;10.40;55.90;;;;;;5022432;28;20044;-50
2022/04/19 06:49:38;;;;;;;11.85;8.95;;;10.50;55.50;;;;;;5020683;28;20079;-50
2022/04/19 06:52:06;;;;;;;9.98;8.32;;;10.70;55.70;;;;;;5029032;28;20092;-49
2022/04/19 06:54:34;;;;;;;13.70;9.32;;;10.80;55.40;;;;;;5025366;28;20537;-49
2022/04/19 06:57:02;;;;;;;13.02;8.65;;;11.00;55.20;;;;;;5027781;28;20029;-50
2022/04/19 06:59:29;;;;;;;12.30;8.27;;;11.10;54.90;;;;;;5029358;28;20049;-51
2022/04/19 07:01:56;;;;;;;11.95;8.02;;;11.20;54.50;;;;;;5047572;28;20033;-53
2022/04/19 07:04:45;;;;;;;10.98;7.70;;;11.40;54.30;;;;;;5012138;28;20064;-50
2022/04/19 07:07:13;;;;;;;10.73;8.00;;;11.50;53.80;;;;;;5020642;28;20512;-51
2022/04/19 07:09:42;;;;;;;10.88;7.03;;;11.70;53.20;;;;;;5013687;28;20041;-52
2022/04/19 07:12:09;;;;;;;10.77;7.13;;;11.80;52.30;;;;;;5013862;28;20043;-51
2022/04/19 07:14:55;;;;;;;9.80;6.70;;;12.00;52.10;;;;;;5018922;28;20045;-50
2022/04/19 07:17:40;;;;;;;8.60;7.00;;;12.10;51.90;;;;;;5018528;28;20056;-49
2022/04/19 07:28:28;;;;;;;11.23;7.82;;;12.60;51.00;;;;;;5024207;28;20072;-52
2022/04/19 07:30:55;;;;;;;10.52;7.03;;;12.70;50.50;;;;;;5027215;28;20075;-53
2022/04/19 07:33:24;;;;;;;10.90;7.32;;;12.80;50.50;;;;;;5028186;28;20064;-50
2022/04/19 07:35:53;;;;;;;9.98;7.25;;;12.90;50.20;;;;;;5031622;28;20041;-50
2022/04/19 07:38:20;;;;;;;11.95;7.90;;;13.10;50.50;;;;;;5023085;28;20034;-50
2022/04/19 07:41:14;;;;;;;10.48;7.75;;;13.20;49.60;;;;;;5030076;28;20111;-55
2022/04/19 07:43:44;;;;;;;10.13;7.40;;;13.30;49.40;;;;;;5026167;28;20053;-50
2022/04/19 07:46:11;;;;;;;14.70;9.13;;;13.40;48.90;;;;;;5050216;28;20501;-49
2022/04/19 07:48:38;;;;;;;10.65;7.78;;;13.50;48.90;;;;;;5034481;28;20045;-51
2022/04/19 07:51:05;;;;;;;9.52;7.60;;;13.60;48.80;;;;;;5033775;28;20521;-50
2022/04/19 07:53:32;;;;;;;10.25;7.53;;;13.70;48.60;;;;;;5017102;28;20052;-52
2022/04/19 07:56:02;;;;;;;10.70;7.55;;;13.80;48.40;;;;;;5019947;28;20127;-49
2022/04/19 07:58:29;;;;;;;11.45;8.27;;;13.90;48.10;;;;;;5029736;28;20033;-50
2022/04/19 08:00:56;;;;;;;10.75;8.18;;;14.00;47.70;;;;;;5043992;28;20128;-49
2022/04/19 08:03:23;;;;;;;10.15;8.10;;;14.10;47.60;;;;;;5015781;28;20064;-50
2022/04/19 08:05:51;;;;;;;12.02;8.85;;;14.20;47.40;;;;;;5040006;28;20048;-49
2022/04/19 08:08:21;;;;;;;12.35;8.57;;;14.30;47.10;;;;;;5029625;28;20090;-50
2022/04/19 08:10:48;;;;;;;10.95;8.25;;;14.40;47.20;;;;;;5038887;28;20049;-49
2022/04/19 08:13:16;;;;;;;12.55;8.48;;;14.40;47.10;;;;;;5018429;28;20042;-52
2022/04/19 08:15:44;;;;;;;11.88;7.95;;;14.50;46.30;;;;;;5027939;28;20045;-49
2022/04/19 08:18:13;;;;;;;11.52;7.10;;;14.60;46.20;;;;;;5011771;28;20056;-50
2022/04/19 08:20:44;;;;;;;13.45;7.60;;;14.70;46.20;;;;;;5007396;28;20125;-53
2022/04/19 08:23:12;;;;;;;14.45;8.02;;;14.80;46.10;;;;;;5035775;28;20124;-51
2022/04/19 08:25:39;;;;;;;10.02;8.07;;;14.90;46.30;;;;;;5041003;28;20045;-52
2022/04/19 08:28:07;;;;;;;10.30;7.40;;;14.90;45.90;;;;;;5011926;28;20575;-52
2022/04/19 08:30:37;;;;;;;10.65;7.60;;;15.00;45.60;;;;;;5021527;28;20065;-50
2022/04/19 08:33:06;;;;;;;10.68;7.65;;;15.10;45.50;;;;;;5023638;28;20053;-50
2022/04/19 08:35:35;;;;;;;12.23;7.63;;;15.20;45.20;;;;;;5019773;28;20504;-51
2022/04/19 08:38:02;;;;;;;8.85;7.13;;;15.30;44.90;;;;;;5041455;28;20417;-49
2022/04/19 08:40:32;;;;;;;13.93;7.82;;;15.40;44.70;;;;;;5038618;28;20039;-50
2022/04/19 08:43:03;;;;;;;11.35;7.68;;;15.50;44.30;;;;;;5014962;28;20132;-49
2022/04/19 08:45:30;;;;;;;12.13;7.53;;;15.60;44.10;;;;;;5028122;28;20038;-51
2022/04/19 08:47:58;;;;;;;12.32;7.15;;;15.60;44.40;;;;;;5040223;28;20110;-53
2022/04/19 08:50:26;;;;;;;15.15;7.53;;;15.70;44.60;;;;;;5037702;28;20042;-49
2022/04/19 08:58:25;;;;;;;11.18;7.13;;;15.90;43.80;;;;;;5031764;28;20049;-51
2022/04/19 09:00:51;;;;;;;12.48;5.88;;;16.00;43.10;;;;;;5031857;28;20065;-49
2022/04/19 09:03:20;;;;;;;14.77;7.07;;;16.10;43.00;;;;;;5037518;28;20045;-51
2022/04/19 09:05:53;;;;;;;9.13;7.20;;;16.10;42.80;;;;;;5027969;28;20059;-51
2022/04/19 09:08:20;;;;;;;10.43;7.10;;;16.20;42.60;;;;;;5033373;28;20045;-52
2022/04/19 09:10:50;;;;;;;10.00;7.57;;;16.20;42.90;;;;;;5034335;28;20122;-52
2022/04/19 09:13:21;;;;;;;8.23;6.30;;;16.30;42.90;;;;;;5028180;28;20549;-50
2022/04/19 09:15:49;;;;;;;8.47;5.33;;;16.40;42.50;;;;;;5021932;28;20036;-51
2022/04/19 09:18:33;;;;;;;7.43;5.63;;;16.40;41.60;;;;;;5044413;28;20420;-50
2022/04/19 09:21:06;;;;;;;6.70;5.38;;;16.50;40.30;;;;;;5039833;28;20568;-50
2022/04/19 09:23:34;;;;;;;6.57;4.47;;;16.50;39.90;;;;;;5042423;28;20447;-51
2022/04/19 09:26:05;;;;;;;9.93;4.82;;;16.60;40.00;;;;;;5038875;28;20048;-49
2022/04/19 09:28:34;;;;;;;6.32;5.03;;;16.70;39.60;;;;;;5042030;28;20068;-49
2022/04/19 09:31:07;;;;;;;5.78;4.55;;;16.70;39.60;;;;;;5039972;28;20482;-52
2022/04/19 09:33:34;;;;;;;6.05;4.32;;;16.80;39.40;;;;;;5047137;28;20052;-49
2022/04/19 09:36:03;;;;;;;5.82;4.82;;;16.80;39.20;;;;;;5034768;28;20120;-48
2022/04/19 09:38:35;;;;;;;6.47;4.95;;;16.90;39.20;;;;;;5031519;28;20095;-49
2022/04/19 09:41:03;;;;;;;7.65;5.10;;;17.00;39.00;;;;;;5044427;28;20045;-49
2022/04/19 09:44:08;;;;;;;7.25;4.57;;;17.00;38.60;;;;;;5039636;28;21084;-51
2022/04/19 09:46:38;;;;;;;4.97;4.10;;;17.10;38.70;;;;;;5030279;28;20112;-51
2022/04/19 09:49:06;;;;;;;6.35;5.05;;;17.20;39.30;;;;;;5032933;28;20042;-53
2022/04/19 09:51:35;;;;;;;6.25;4.20;;;17.20;39.40;;;;;;5022481;28;20061;-52
2022/04/19 09:54:04;;;;;;;5.97;4.60;;;17.20;38.90;;;;;;5030901;28;20053;-54
2022/04/19 09:56:38;;;;;;;5.53;4.32;;;17.30;39.10;;;;;;5036303;28;20098;-49
2022/04/19 09:59:24;;;;;;;6.55;4.80;;;17.40;38.40;;;;;;5047326;28;20121;-53
2022/04/19 10:10:10;;;;;;;9.48;5.75;;;17.60;39.30;;;;;;5038721;28;20413;-51
2022/04/19 10:12:38;;;;;;;8.43;5.82;;;17.70;38.80;;;;;;5033536;28;20402;-53
2022/04/19 10:15:06;;;;;;;9.40;5.95;;;17.70;38.60;;;;;;5028630;28;20045;-51
2022/04/19 10:17:35;;;;;;;6.97;5.55;;;17.80;38.50;;;;;;5042696;28;20059;-53
2022/04/19 10:20:04;;;;;;;7.35;5.45;;;17.80;38.60;;;;;;5037970;28;20091;-49
2022/04/19 10:22:31;;;;;;;8.32;5.80;;;17.80;38.40;;;;;;5030113;28;20107;-49
2022/04/19 10:24:58;;;;;;;6.63;4.95;;;17.90;38.10;;;;;;5032807;28;20422;-53
2022/04/19 10:27:33;;;;;;;7.32;4.75;;;18.00;38.20;;;;;;5030428;28;20099;-50
2022/04/19 10:30:01;;;;;;;6.43;4.43;;;18.00;37.70;;;;;;5027395;28;20440;-49
2022/04/19 10:32:33;;;;;;;5.30;4.15;;;18.10;37.70;;;;;;5037408;28;20033;-53
2022/04/19 10:35:04;;;;;;;6.57;4.68;;;18.10;37.40;;;;;;5034978;28;20120;-49
2022/04/19 10:37:32;;;;;;;5.38;4.22;;;18.20;37.40;;;;;;5045900;28;20549;-51
2022/04/19 10:40:03;;;;;;;5.20;4.00;;;18.20;37.00;;;;;;5031774;28;20041;-52
2022/04/19 10:42:37;;;;;;;6.47;5.00;;;18.20;37.40;;;;;;5042853;28;20033;-51
2022/04/19 10:45:13;;;;;;;7.03;4.88;;;18.30;37.10;;;;;;5040792;28;20044;-49
2022/04/19 10:48:03;;;;;;;5.88;4.13;;;18.40;36.80;;;;;;5024227;28;20386;-52
2022/04/19 10:50:35;;;;;;;8.38;4.50;;;18.40;37.10;;;;;;5022051;28;20081;-50
2022/04/19 10:53:03;;;;;;;6.28;4.10;;;18.40;37.20;;;;;;5031226;28;20048;-53
2022/04/19 10:55:38;;;;;;;7.18;4.72;;;18.50;37.50;;;;;;5030186;28;20497;-49
2022/04/19 10:58:23;;;;;;;7.97;5.07;;;18.60;37.40;;;;;;5040057;28;20040;-50
2022/04/19 11:00:58;;;;;;;13.57;5.80;;;18.70;37.10;;;;;;5041981;28;20443;-52
2022/04/19 11:03:29;;;;;;;10.45;5.60;;;18.70;37.30;;;;;;5039737;28;20041;-52
2022/04/19 11:05:57;;;;;;;6.25;4.75;;;18.80;37.10;;;;;;5035070;28;20050;-51
2022/04/19 11:08:30;;;;;;;5.88;4.38;;;18.80;37.30;;;;;;5036625;28;20048;-52
2022/04/19 11:11:03;;;;;;;7.75;4.90;;;18.90;36.70;;;;;;5035630;28;20127;-49
2022/04/19 11:13:31;;;;;;;6.15;4.43;;;18.90;36.10;;;;;;5021612;28;20041;-52
2022/04/19 11:16:08;;;;;;;6.03;4.13;;;19.00;36.30;;;;;;5040107;28;20045;-50
2022/04/19 11:18:37;;;;;;;6.05;4.80;;;19.00;36.00;;;;;;5036295;28;20044;-49
2022/04/19 11:21:48;;;;;;;5.63;4.32;;;19.10;36.50;;;;;;5032329;28;20029;-52
2022/04/19 11:24:53;;;;;;;6.40;4.40;;;19.20;36.10;;;;;;5030221;28;20045;-51
2022/04/19 11:27:20;;;;;;;7.40;4.75;;;19.30;36.80;;;;;;5025390;28;20084;-50
2022/04/19 11:29:48;;;;;;;6.80;4.43;;;19.30;36.60;;;;;;5042438;28;20069;-52
2022/04/19 11:32:25;;;;;;;7.00;4.82;;;19.40;36.00;;;;;;5037107;28;20053;-52
2022/04/19 11:35:01;;;;;;;4.28;3.88;;;19.50;35.90;;;;;;5049923;28;20068;-50
2022/04/19 11:37:32;;;;;;;5.53;4.32;;;19.50;36.20;;;;;;5045353;28;20041;-51
2022/04/19 11:48:30;;;;;;;6.75;4.22;;;19.90;35.90;;;;;;5042765;28;20040;-53
2022/04/19 11:51:11;;;;;;;6.03;4.88;;;20.00;35.30;;;;;;5034876;28;20126;-49
2022/04/19 11:53:38;;;;;;;7.88;3.90;;;20.00;35.60;;;;;;5029700;28;20049;-50
2022/04/19 11:56:06;;;;;;;5.75;3.90;;;20.10;35.10;;;;;;5030210;28;20128;-50
2022/04/19 11:58:33;;;;;;;5.88;4.32;;;20.10;35.40;;;;;;5045964;28;20044;-51
2022/04/19 12:01:04;;;;;;;5.07;4.55;;;20.20;35.50;;;;;;5041568;28;20068;-50
2022/04/19 12:03:36;;;;;;;5.57;4.25;;;20.20;34.90;;;;;;5049666;28;20063;-52
2022/04/19 12:06:08;;;;;;;4.82;4.32;;;20.20;34.50;;;;;;5024979;28;20072;-53
2022/04/19 12:08:51;;;;;;;;;;;20.30;34.80;;;;;;5031899;28;20034;-53
2022/04/19 12:11:19;;;;;;;5.60;3.80;;;20.40;35.40;;;;;;5029391;28;20012;-49
2022/04/19 12:13:47;;;;;;;4.35;3.83;;;20.40;34.90;;;;;;5028547;28;20434;-51
2022/04/19 12:16:37;;;;;;;5.38;4.50;;;20.40;35.00;;;;;;5036459;28;20065;-50
2022/04/19 12:19:09;;;;;;;5.70;4.25;;;20.50;34.30;;;;;;5040133;28;20053;-51
2022/04/19 12:21:42;;;;;;;5.22;4.72;;;20.60;34.40;;;;;;5014526;28;20128;-54
2022/04/19 12:24:25;;;;;;;4.32;3.92;;;20.60;34.20;;;;;;5033759;28;20386;-49
2022/04/19 12:27:05;;;;;;;5.57;4.28;;;20.70;33.50;;;;;;5029169;28;20045;-50
2022/04/19 12:29:37;;;;;;;4.85;3.75;;;20.70;33.30;;;;;;5010425;28;20042;-50
2022/04/19 12:32:05;;;;;;;;;;;20.80;34.10;;;;;;5022787;28;20041;-49
2022/04/19 12:34:37;;;;;;;5.45;3.95;;;20.90;34.40;;;;;;5045057;28;19924;-49
2022/04/19 12:37:09;;;;;;;6.90;4.22;;;20.90;34.10;;;;;;5040406;28;20044;-50
2022/04/19 12:39:36;;;;;;;5.18;4.15;;;21.00;33.40;;;;;;5034418;28;20435;-50
2022/04/19 12:42:08;;;;;;;5.53;3.90;;;21.10;33.90;;;;;;5047224;28;20102;-48
2022/04/19 12:44:35;;;;;;;;;;;21.20;33.70;;;;;;5047289;28;20065;-53
2022/04/19 12:47:10;;;;;;;9.70;3.95;;;21.20;33.90;;;;;;5041351;28;19921;-50
2022/04/19 12:49:45;;;;;;;5.20;4.22;;;21.30;33.30;;;;;;5048447;28;20068;-52
2022/04/19 12:52:12;;;;;;;;;;;21.40;33.30;;;;;;5035404;28;20072;-51
2022/04/19 12:54:46;;;;;;;5.03;4.18;;;21.50;33.70;;;;;;5032128;28;19967;-54
2022/04/19 12:57:23;;;;;;;4.38;3.55;;;21.50;33.40;;;;;;5012959;28;20045;-50
2022/04/19 12:59:51;;;;;;;4.63;3.30;;;21.60;33.10;;;;;;5048924;28;20473;-51
2022/04/19 13:02:20;;;;;;;4.75;3.70;;;21.60;33.30;;;;;;5045127;28;20114;-53
2022/04/19 13:04:49;;;;;;;6.10;3.97;;;21.70;32.90;;;;;;5037121;28;20045;-54
2022/04/19 13:12:50;;;;;;;5.47;3.47;;;22.00;32.70;;;;;;5013337;28;20096;-54
2022/04/19 13:15:17;;;;;;;4.20;3.58;;;22.10;32.40;;;;;;5022084;28;20068;-52
2022/04/19 13:17:44;;;;;;;5.47;4.45;;;22.20;32.20;;;;;;5022803;28;20103;-56
2022/04/19 13:20:12;;;;;;;5.15;3.55;;;22.30;32.00;;;;;;5030903;28;20099;-50
2022/04/19 13:22:39;;;;;;;5.78;3.65;;;22.40;31.90;;;;;;5028132;28;20434;-55
2022/04/19 13:25:07;;;;;;;5.80;3.10;;;22.50;31.90;;;;;;5020795;28;20049;-51
2022/04/19 13:27:35;;;;;;;4.90;3.10;;;22.60;32.50;;;;;;5026905;28;20057;-49
2022/04/19 13:30:10;;;;;;;4.95;3.72;;;23.00;32.40;;;;;;5025913;28;20428;-52
2022/04/19 13:32:38;;;;;;;4.15;3.13;;;23.00;30.70;;;;;;5031553;28;20048;-50
2022/04/19 13:35:08;;;;;;;5.95;3.53;;;23.20;30.80;;;;;;5043151;28;20033;-54
2022/04/19 13:40:27;;;;;;;4.93;3.30;;;24.10;31.30;;;;;;5048493;28;20045;-52
2022/04/19 13:42:55;;;;;;;7.95;3.33;;;25.00;31.40;;;;;;5040761;28;20067;-53
2022/04/19 13:45:27;;;;;;;8.85;4.78;;;26.00;31.20;;;;;;5040230;28;20091;-50
2022/04/19 13:47:58;;;;;;;5.45;3.28;;;27.20;30.20;;;;;;5043822;28;20530;-54
2022/04/19 13:50:27;;;;;;;4.47;2.83;;;28.40;30.10;;;;;;5042322;28;20099;-53
2022/04/19 13:52:54;;;;;;;3.90;2.53;;;29.60;29.50;;;;;;5042034;28;20099;-54
2022/04/19 13:55:27;;;;;;;5.15;3.13;;;30.80;28.50;;;;;;5050911;28;20412;-54
2022/04/19 13:57:56;;;;;;;4.03;3.03;;;31.90;27.40;;;;;;5041902;28;20075;-54
2022/04/19 14:00:23;;;;;;;3.47;2.50;;;32.90;27.10;;;;;;5032635;28;20111;-54
2022/04/19 14:02:50;;;;;;;4.40;2.80;;;33.90;26.70;;;;;;5032587;28;20049;-54
2022/04/19 14:05:17;;;;;;;4.00;2.47;;;34.70;25.60;;;;;;5032595;28;20116;-51